Snelling, CA (95369)

00:42 PDT le 27 mai 2015 (GMT -0700)
Denair | | Change Station
CLOSE
Current Station
Stations météorologiques personnelles
Location: Denair, CA
Altitude: 246 ft
Stations météo à proximité

Alt. 246 ft 37.52 °N, 120.62 °W | Updated 39 seconds ago

Ciel dégagé
Ciel dégagé
61.0 ° F
Paraît 61.0 ° F
N
3.4
Vent Variable Vent de NO
Gusts 4.9 mph

Aujourd'hui
Haut(e) -- | Bas -- ° F
--% Risque de précip.
Hier
Haut(e) -- | Bas -- ° F
Precip. -- pouce
5:44 AM 8:13 PM
Lune gibbeuse croissante, 65% visible
Pression 29.95 pouce
Visibilité 10.0 Miles terrestres
Nuages Ciel dégagé
Point de rosée 55 ° F
Humidité 80%
Précipitations 0.00 pouce
Profondeur de la couche neigeuse Non disponible.
UV 0.0 sur 12
Pollen 6.10 sur 12
Qualité de l'air Non disponible.
Flu Activity Sporadic
METAR KMER 270715Z AUTO 29008KT 10SM CLR 16/11 A2995 RMK AO1

More Conditions Fewer Conditions

Pression 29.95 pouce
Visibilité 10.0 Miles terrestres
Nuages Ciel dégagé
Point de rosée 55 ° F
Humidité 80%
Précipitations 0.00 pouce
Profondeur de la couche neigeuse Non disponible.
UV 0.0 sur 12
Pollen 6.10 sur 12
Qualité de l'air Non disponible.
Flu Activity Sporadic
METAR KMER 270715Z AUTO 29008KT 10SM CLR 16/11 A2995 RMK AO1

More Conditions Fewer Conditions

10-Day Weather Forecast

Almanac

Astronomie

May. 27, 2015 Lever Coucher
Temps réel
Crépuscule civil
Crépuscule nautique
Crépuscule astronomique
Lune
Durée de lumière visible
Longueur du jour
Tomorrow will be .
, % of the Moon is Illuminated

Extrêmes aujourd'hui

State Highs State Lows

Community

WunderPhotos

Upload Photos

1,824,632 Photos téléchargées !

WunderBlogs® & News

Nearby

Qualité de l'air

  Qualité de l'air Indice de la qualité de l'air Polluant
Not available.

Épaisseur de neige

Station Depth Altitude

Activité sismique

Ville Distance Mag. Time & Date
Minimum magnitude displayed is 2.5.

Températures des eaux côtières

Lieu Température

Stations

Stations météo à proximité

Emplacement de la station Température Refroidissement éolien Point de rosée Humidité Vent Precip. Alt. Mise à jour Type